sensor_id;sensor_type;location;lat;lon;timestamp;temperature;humidity
18317;DHT22;9284;52.298;21.164;2022-08-18T04:18:45;17.10;99.90
18317;DHT22;9284;52.298;21.164;2022-08-18T04:21:13;17.30;99.90
18317;DHT22;9284;52.298;21.164;2022-08-18T04:23:41;17.20;99.90
18317;DHT22;9284;52.298;21.164;2022-08-18T04:26:11;17.30;99.90
18317;DHT22;9284;52.298;21.164;2022-08-18T04:28:45;17.40;99.90
18317;DHT22;9284;52.298;21.164;2022-08-18T04:31:14;17.40;99.90
18317;DHT22;9284;52.298;21.164;2022-08-18T04:33:45;17.50;99.90
18317;DHT22;9284;52.298;21.164;2022-08-18T04:36:14;17.60;99.90
18317;DHT22;9284;52.298;21.164;2022-08-18T04:38:46;17.60;99.90
18317;DHT22;9284;52.298;21.164;2022-08-18T04:41:15;17.70;99.90
18317;DHT22;9284;52.298;21.164;2022-08-18T04:43:43;17.80;99.90
18317;DHT22;9284;52.298;21.164;2022-08-18T04:46:12;17.90;99.90
18317;DHT22;9284;52.298;21.164;2022-08-18T04:48:40;18.00;99.90
18317;DHT22;9284;52.298;21.164;2022-08-18T04:51:12;18.10;99.90
18317;DHT22;9284;52.298;21.164;2022-08-18T04:54:00;18.20;99.90
18317;DHT22;9284;52.298;21.164;2022-08-18T04:56:30;18.40;99.90
18317;DHT22;9284;52.298;21.164;2022-08-18T04:59:04;18.40;99.90
18317;DHT22;9284;52.298;21.164;2022-08-18T05:01:35;18.40;99.90
18317;DHT22;9284;52.298;21.164;2022-08-18T05:04:04;18.50;99.90
18317;DHT22;9284;52.298;21.164;2022-08-18T05:06:34;18.60;99.90
18317;DHT22;9284;52.298;21.164;2022-08-18T05:09:05;18.70;99.90
18317;DHT22;9284;52.298;21.164;2022-08-18T05:11:35;18.70;99.90
18317;DHT22;9284;52.298;21.164;2022-08-18T05:14:05;18.80;99.00
18317;DHT22;9284;52.298;21.164;2022-08-18T05:16:34;18.90;82.90
18317;DHT22;9284;52.298;21.164;2022-08-18T05:19:16;19.00;61.10
18317;DHT22;9284;52.298;21.164;2022-08-18T05:21:54;19.10;30.40
18317;DHT22;9284;52.298;21.164;2022-08-18T05:24:28;19.10;21.30
18317;DHT22;9284;52.298;21.164;2022-08-18T05:27:04;19.40;1.00
18317;DHT22;9284;52.298;21.164;2022-08-18T05:29:33;19.40;1.00
18317;DHT22;9284;52.298;21.164;2022-08-18T05:32:12;19.50;1.00
18317;DHT22;9284;52.298;21.164;2022-08-18T05:35:02;19.70;1.00
18317;DHT22;9284;52.298;21.164;2022-08-18T05:37:38;19.70;1.00
18317;DHT22;9284;52.298;21.164;2022-08-18T05:40:13;19.70;1.00
18317;DHT22;9284;52.298;21.164;2022-08-18T05:42:41;19.80;1.00
18317;DHT22;9284;52.298;21.164;2022-08-18T05:45:21;20.00;1.00
18317;DHT22;9284;52.298;21.164;2022-08-18T05:47:50;20.20;1.00
18317;DHT22;9284;52.298;21.164;2022-08-18T05:50:24;20.50;1.00
18317;DHT22;9284;52.298;21.164;2022-08-18T05:52:55;21.00;99.90
18317;DHT22;9284;52.298;21.164;2022-08-18T05:55:30;21.60;1.00
18317;DHT22;9284;52.298;21.164;2022-08-18T05:58:21;22.20;99.90
18317;DHT22;9284;52.298;21.164;2022-08-18T06:01:03;22.90;99.90
18317;DHT22;9284;52.298;21.164;2022-08-18T06:03:34;23.60;99.90
18317;DHT22;9284;52.298;21.164;2022-08-18T06:06:15;24.60;99.90
18317;DHT22;9284;52.298;21.164;2022-08-18T06:08:51;25.40;1.00
18317;DHT22;9284;52.298;21.164;2022-08-18T06:11:22;26.50;1.00
18317;DHT22;9284;52.298;21.164;2022-08-18T06:13:51;27.10;99.90
18317;DHT22;9284;52.298;21.164;2022-08-18T06:16:41;27.90;14.10
18317;DHT22;9284;52.298;21.164;2022-08-18T06:19:37;28.40;1.00
18317;DHT22;9284;52.298;21.164;2022-08-18T06:22:20;28.30;1.00
18317;DHT22;9284;52.298;21.164;2022-08-18T06:24:59;28.10;1.00
18317;DHT22;9284;52.298;21.164;2022-08-18T06:27:37;29.00;99.90
18317;DHT22;9284;52.298;21.164;2022-08-18T06:30:14;28.70;99.90
18317;DHT22;9284;52.298;21.164;2022-08-18T06:33:06;29.20;99.90
18317;DHT22;9284;52.298;21.164;2022-08-18T06:35:40;29.50;99.90
18317;DHT22;9284;52.298;21.164;2022-08-18T06:38:29;29.50;99.90
18317;DHT22;9284;52.298;21.164;2022-08-18T06:41:16;29.80;99.90
18317;DHT22;9284;52.298;21.164;2022-08-18T06:44:07;29.90;99.90
18317;DHT22;9284;52.298;21.164;2022-08-18T06:46:41;29.80;99.90
18317;DHT22;9284;52.298;21.164;2022-08-18T06:49:15;29.70;99.90
18317;DHT22;9284;52.298;21.164;2022-08-18T06:51:45;30.30;99.90
18317;DHT22;9284;52.298;21.164;2022-08-18T06:54:28;31.00;99.90
18317;DHT22;9284;52.298;21.164;2022-08-18T06:56:57;31.60;72.30
18317;DHT22;9284;52.298;21.164;2022-08-18T06:59:28;30.80;56.90
18317;DHT22;9284;52.298;21.164;2022-08-18T07:02:13;30.70;45.10
18317;DHT22;9284;52.298;21.164;2022-08-18T07:04:58;31.30;42.80
18317;DHT22;9284;52.298;21.164;2022-08-18T07:07:33;31.60;24.00
18317;DHT22;9284;52.298;21.164;2022-08-18T07:10:31;31.70;19.70
18317;DHT22;9284;52.298;21.164;2022-08-18T07:13:15;32.00;1.00
18317;DHT22;9284;52.298;21.164;2022-08-18T07:15:44;31.80;1.00
18317;DHT22;9284;52.298;21.164;2022-08-18T07:18:25;31.10;1.00
18317;DHT22;9284;52.298;21.164;2022-08-18T07:20:56;31.90;1.00
18317;DHT22;9284;52.298;21.164;2022-08-18T07:23:29;32.00;1.00
18317;DHT22;9284;52.298;21.164;2022-08-18T07:26:02;32.20;1.00
18317;DHT22;9284;52.298;21.164;2022-08-18T07:28:35;33.00;1.00
18317;DHT22;9284;52.298;21.164;2022-08-18T07:31:28;33.20;1.00
18317;DHT22;9284;52.298;21.164;2022-08-18T07:34:00;32.90;1.00
18317;DHT22;9284;52.298;21.164;2022-08-18T07:36:32;32.80;1.00
18317;DHT22;9284;52.298;21.164;2022-08-18T07:39:06;32.80;1.00
18317;DHT22;9284;52.298;21.164;2022-08-18T07:41:39;33.20;1.00
18317;DHT22;9284;52.298;21.164;2022-08-18T07:44:15;33.00;1.00
18317;DHT22;9284;52.298;21.164;2022-08-18T07:46:53;32.70;1.00
18317;DHT22;9284;52.298;21.164;2022-08-18T07:49:24;32.80;1.00
18317;DHT22;9284;52.298;21.164;2022-08-18T07:51:56;33.10;1.00
18317;DHT22;9284;52.298;21.164;2022-08-18T07:54:37;32.20;1.00
18317;DHT22;9284;52.298;21.164;2022-08-18T07:57:24;32.90;1.00
18317;DHT22;9284;52.298;21.164;2022-08-18T08:00:03;32.60;1.00
18317;DHT22;9284;52.298;21.164;2022-08-18T08:02:54;32.90;1.00
18317;DHT22;9284;52.298;21.164;2022-08-18T08:05:37;32.20;1.00
18317;DHT22;9284;52.298;21.164;2022-08-18T08:08:15;32.40;1.00
18317;DHT22;9284;52.298;21.164;2022-08-18T08:11:02;31.70;1.00
18317;DHT22;9284;52.298;21.164;2022-08-18T08:13:41;32.20;1.00
18317;DHT22;9284;52.298;21.164;2022-08-18T08:16:32;32.90;1.00
18317;DHT22;9284;52.298;21.164;2022-08-18T08:19:12;32.70;1.00
18317;DHT22;9284;52.298;21.164;2022-08-18T08:22:06;32.20;1.00
18317;DHT22;9284;52.298;21.164;2022-08-18T08:24:45;32.00;1.00
18317;DHT22;9284;52.298;21.164;2022-08-18T08:27:23;31.50;1.00
18317;DHT22;9284;52.298;21.164;2022-08-18T08:30:02;32.20;1.00
18317;DHT22;9284;52.298;21.164;2022-08-18T08:32:35;32.10;1.00
18317;DHT22;9284;52.298;21.164;2022-08-18T08:35:10;32.60;1.00
18317;DHT22;9284;52.298;21.164;2022-08-18T08:38:02;33.00;1.00
18317;DHT22;9284;52.298;21.164;2022-08-18T08:40:55;32.80;1.00
18317;DHT22;9284;52.298;21.164;2022-08-18T08:43:28;31.90;1.00
18317;DHT22;9284;52.298;21.164;2022-08-18T08:46:06;31.90;1.00
18317;DHT22;9284;52.298;21.164;2022-08-18T08:48:41;32.30;1.00
18317;DHT22;9284;52.298;21.164;2022-08-18T08:51:27;32.60;1.00
18317;DHT22;9284;52.298;21.164;2022-08-18T08:54:00;32.90;1.00
18317;DHT22;9284;52.298;21.164;2022-08-18T08:56:39;33.20;1.00
18317;DHT22;9284;52.298;21.164;2022-08-18T08:59:12;32.70;1.00
18317;DHT22;9284;52.298;21.164;2022-08-18T09:01:46;33.30;1.00
18317;DHT22;9284;52.298;21.164;2022-08-18T09:04:30;33.00;1.00
18317;DHT22;9284;52.298;21.164;2022-08-18T09:07:12;32.60;1.00
18317;DHT22;9284;52.298;21.164;2022-08-18T09:09:58;32.60;1.00
18317;DHT22;9284;52.298;21.164;2022-08-18T09:12:41;32.50;1.00
18317;DHT22;9284;52.298;21.164;2022-08-18T09:15:33;32.40;1.00
18317;DHT22;9284;52.298;21.164;2022-08-18T09:18:21;32.30;1.00
18317;DHT22;9284;52.298;21.164;2022-08-18T09:21:04;32.00;1.00
18317;DHT22;9284;52.298;21.164;2022-08-18T09:23:40;31.60;1.00
18317;DHT22;9284;52.298;21.164;2022-08-18T09:26:25;31.60;1.00
18317;DHT22;9284;52.298;21.164;2022-08-18T09:28:56;31.90;1.00
18317;DHT22;9284;52.298;21.164;2022-08-18T09:31:27;32.00;1.00
18317;DHT22;9284;52.298;21.164;2022-08-18T09:37:08;31.10;1.00
18317;DHT22;9284;52.298;21.164;2022-08-18T09:39:43;30.70;1.00
18317;DHT22;9284;52.298;21.164;2022-08-18T09:42:43;30.60;1.00
18317;DHT22;9284;52.298;21.164;2022-08-18T09:45:51;30.50;1.00
18317;DHT22;9284;52.298;21.164;2022-08-18T09:48:26;30.50;1.00
18317;DHT22;9284;52.298;21.164;2022-08-18T09:53:54;30.60;1.00
18317;DHT22;9284;52.298;21.164;2022-08-18T09:59:58;30.60;1.00
18317;DHT22;9284;52.298;21.164;2022-08-18T10:03:12;31.00;1.00
18317;DHT22;9284;52.298;21.164;2022-08-18T10:06:18;31.30;1.00
18317;DHT22;9284;52.298;21.164;2022-08-18T10:15:19;30.70;1.00
18317;DHT22;9284;52.298;21.164;2022-08-18T10:18:19;30.50;1.00
18317;DHT22;9284;52.298;21.164;2022-08-18T10:20:58;30.30;1.00
18317;DHT22;9284;52.298;21.164;2022-08-18T10:23:50;30.10;1.00
18317;DHT22;9284;52.298;21.164;2022-08-18T10:27:09;30.10;1.00
18317;DHT22;9284;52.298;21.164;2022-08-18T10:29:49;30.10;1.00
18317;DHT22;9284;52.298;21.164;2022-08-18T10:32:24;30.20;1.00
18317;DHT22;9284;52.298;21.164;2022-08-18T10:35:04;29.90;1.00
18317;DHT22;9284;52.298;21.164;2022-08-18T10:37:36;29.90;1.00
18317;DHT22;9284;52.298;21.164;2022-08-18T10:40:16;29.90;1.00
18317;DHT22;9284;52.298;21.164;2022-08-18T10:42:52;30.00;1.00
18317;DHT22;9284;52.298;21.164;2022-08-18T10:45:25;30.00;1.00
18317;DHT22;9284;52.298;21.164;2022-08-18T10:48:06;30.30;1.00
18317;DHT22;9284;52.298;21.164;2022-08-18T10:51:02;30.50;1.00
18317;DHT22;9284;52.298;21.164;2022-08-18T10:53:37;30.70;1.00
18317;DHT22;9284;52.298;21.164;2022-08-18T10:56:25;31.10;1.00
18317;DHT22;9284;52.298;21.164;2022-08-18T10:59:06;31.10;1.00
18317;DHT22;9284;52.298;21.164;2022-08-18T11:02:00;31.10;1.00
18317;DHT22;9284;52.298;21.164;2022-08-18T11:04:35;31.30;1.00
18317;DHT22;9284;52.298;21.164;2022-08-18T11:07:08;31.90;1.00
18317;DHT22;9284;52.298;21.164;2022-08-18T11:09:47;32.00;1.00
18317;DHT22;9284;52.298;21.164;2022-08-18T11:12:57;31.30;1.00
18317;DHT22;9284;52.298;21.164;2022-08-18T11:15:45;30.80;1.00
18317;DHT22;9284;52.298;21.164;2022-08-18T11:18:27;30.50;1.00
18317;DHT22;9284;52.298;21.164;2022-08-18T11:21:21;30.80;1.00
18317;DHT22;9284;52.298;21.164;2022-08-18T11:24:02;31.10;1.00
18317;DHT22;9284;52.298;21.164;2022-08-18T11:26:30;30.70;1.00
18317;DHT22;9284;52.298;21.164;2022-08-18T11:29:01;31.10;1.00
18317;DHT22;9284;52.298;21.164;2022-08-18T11:31:42;31.40;1.00
18317;DHT22;9284;52.298;21.164;2022-08-18T11:34:36;31.80;1.00
18317;DHT22;9284;52.298;21.164;2022-08-18T11:37:23;32.00;1.00
18317;DHT22;9284;52.298;21.164;2022-08-18T11:40:33;32.00;1.00
18317;DHT22;9284;52.298;21.164;2022-08-18T11:43:25;32.30;1.00
18317;DHT22;9284;52.298;21.164;2022-08-18T11:45:58;32.10;1.00
18317;DHT22;9284;52.298;21.164;2022-08-18T11:48:36;32.00;1.00
18317;DHT22;9284;52.298;21.164;2022-08-18T11:51:21;31.70;1.00
18317;DHT22;9284;52.298;21.164;2022-08-18T11:53:55;31.80;1.00
18317;DHT22;9284;52.298;21.164;2022-08-18T11:56:28;31.70;1.00
18317;DHT22;9284;52.298;21.164;2022-08-18T11:59:05;31.80;1.00
18317;DHT22;9284;52.298;21.164;2022-08-18T12:01:39;31.70;1.00
18317;DHT22;9284;52.298;21.164;2022-08-18T12:04:24;31.60;1.00
18317;DHT22;9284;52.298;21.164;2022-08-18T12:07:02;31.40;1.00
18317;DHT22;9284;52.298;21.164;2022-08-18T12:09:36;31.30;1.00
18317;DHT22;9284;52.298;21.164;2022-08-18T12:12:27;31.20;1.00
18317;DHT22;9284;52.298;21.164;2022-08-18T12:14:58;31.40;1.00
18317;DHT22;9284;52.298;21.164;2022-08-18T12:17:44;31.30;1.00
18317;DHT22;9284;52.298;21.164;2022-08-18T12:20:20;31.10;1.00
18317;DHT22;9284;52.298;21.164;2022-08-18T12:22:49;30.70;1.00
18317;DHT22;9284;52.298;21.164;2022-08-18T12:25:20;30.60;1.00
18317;DHT22;9284;52.298;21.164;2022-08-18T12:27:51;30.50;1.00
18317;DHT22;9284;52.298;21.164;2022-08-18T12:30:19;30.30;1.00
18317;DHT22;9284;52.298;21.164;2022-08-18T12:32:49;30.10;1.00
18317;DHT22;9284;52.298;21.164;2022-08-18T12:35:32;30.00;1.00
18317;DHT22;9284;52.298;21.164;2022-08-18T12:38:01;30.10;1.00
18317;DHT22;9284;52.298;21.164;2022-08-18T12:40:40;30.10;1.00
18317;DHT22;9284;52.298;21.164;2022-08-18T12:43:08;30.20;1.00
18317;DHT22;9284;52.298;21.164;2022-08-18T12:45:36;30.20;1.00
18317;DHT22;9284;52.298;21.164;2022-08-18T12:48:05;30.40;1.00
18317;DHT22;9284;52.298;21.164;2022-08-18T12:50:36;30.50;1.00
18317;DHT22;9284;52.298;21.164;2022-08-18T12:53:24;30.60;1.00
18317;DHT22;9284;52.298;21.164;2022-08-18T12:56:18;30.70;1.00
18317;DHT22;9284;52.298;21.164;2022-08-18T12:58:48;30.70;1.00
18317;DHT22;9284;52.298;21.164;2022-08-18T13:01:16;30.70;1.00
18317;DHT22;9284;52.298;21.164;2022-08-18T13:03:45;30.50;1.00
18317;DHT22;9284;52.298;21.164;2022-08-18T13:06:38;30.50;1.00
18317;DHT22;9284;52.298;21.164;2022-08-18T13:09:27;30.40;1.00
18317;DHT22;9284;52.298;21.164;2022-08-18T13:12:16;30.20;1.00
18317;DHT22;9284;52.298;21.164;2022-08-18T13:14:47;30.40;1.00
18317;DHT22;9284;52.298;21.164;2022-08-18T13:17:17;30.40;1.00
18317;DHT22;9284;52.298;21.164;2022-08-18T13:20:02;30.50;1.00
18317;DHT22;9284;52.298;21.164;2022-08-18T13:22:32;30.50;1.00
18317;DHT22;9284;52.298;21.164;2022-08-18T13:25:03;30.70;1.00
18317;DHT22;9284;52.298;21.164;2022-08-18T13:27:33;30.60;1.00
18317;DHT22;9284;52.298;21.164;2022-08-18T13:30:06;30.60;1.00
18317;DHT22;9284;52.298;21.164;2022-08-18T13:32:55;30.60;1.00
18317;DHT22;9284;52.298;21.164;2022-08-18T13:35:28;30.60;1.00
18317;DHT22;9284;52.298;21.164;2022-08-18T13:38:12;30.40;1.00
18317;DHT22;9284;52.298;21.164;2022-08-18T13:40:52;30.20;1.00
18317;DHT22;9284;52.298;21.164;2022-08-18T13:43:32;30.10;1.00
18317;DHT22;9284;52.298;21.164;2022-08-18T13:46:01;29.90;1.00
18317;DHT22;9284;52.298;21.164;2022-08-18T13:48:31;29.70;1.00
18317;DHT22;9284;52.298;21.164;2022-08-18T13:51:00;29.70;1.00
18317;DHT22;9284;52.298;21.164;2022-08-18T13:53:31;29.80;1.00
18317;DHT22;9284;52.298;21.164;2022-08-18T13:56:01;29.90;1.00
18317;DHT22;9284;52.298;21.164;2022-08-18T13:58:30;29.90;1.00
18317;DHT22;9284;52.298;21.164;2022-08-18T14:01:00;30.10;1.00
18317;DHT22;9284;52.298;21.164;2022-08-18T14:03:49;30.20;1.00
18317;DHT22;9284;52.298;21.164;2022-08-18T14:06:17;30.40;1.00
18317;DHT22;9284;52.298;21.164;2022-08-18T14:08:52;30.40;1.00
18317;DHT22;9284;52.298;21.164;2022-08-18T14:11:24;30.40;1.00
18317;DHT22;9284;52.298;21.164;2022-08-18T14:13:59;30.50;1.00
18317;DHT22;9284;52.298;21.164;2022-08-18T14:16:28;30.50;1.00
18317;DHT22;9284;52.298;21.164;2022-08-18T14:18:56;30.40;1.00
18317;DHT22;9284;52.298;21.164;2022-08-18T14:21:46;30.30;1.00
18317;DHT22;9284;52.298;21.164;2022-08-18T14:24:39;30.00;1.00
18317;DHT22;9284;52.298;21.164;2022-08-18T14:27:28;29.80;1.00
18317;DHT22;9284;52.298;21.164;2022-08-18T14:30:02;29.60;1.00
18317;DHT22;9284;52.298;21.164;2022-08-18T14:32:31;29.40;1.00
18317;DHT22;9284;52.298;21.164;2022-08-18T14:35:04;29.40;1.00
18317;DHT22;9284;52.298;21.164;2022-08-18T14:37:53;29.40;1.00
18317;DHT22;9284;52.298;21.164;2022-08-18T14:40:24;29.50;1.00
18317;DHT22;9284;52.298;21.164;2022-08-18T14:42:53;29.50;1.00
18317;DHT22;9284;52.298;21.164;2022-08-18T14:45:22;29.40;1.00
18317;DHT22;9284;52.298;21.164;2022-08-18T14:48:01;29.40;1.00
18317;DHT22;9284;52.298;21.164;2022-08-18T14:50:34;29.20;1.00
18317;DHT22;9284;52.298;21.164;2022-08-18T14:53:03;29.30;1.00
18317;DHT22;9284;52.298;21.164;2022-08-18T14:55:32;29.40;1.00
18317;DHT22;9284;52.298;21.164;2022-08-18T14:58:02;29.40;1.00
18317;DHT22;9284;52.298;21.164;2022-08-18T15:00:33;29.50;1.00
18317;DHT22;9284;52.298;21.164;2022-08-18T15:03:20;29.60;1.00
18317;DHT22;9284;52.298;21.164;2022-08-18T15:05:59;29.60;1.00
18317;DHT22;9284;52.298;21.164;2022-08-18T15:08:31;29.60;1.00
18317;DHT22;9284;52.298;21.164;2022-08-18T15:11:04;29.60;1.00
18317;DHT22;9284;52.298;21.164;2022-08-18T15:13:39;29.40;1.00
18317;DHT22;9284;52.298;21.164;2022-08-18T15:16:08;29.40;1.00
18317;DHT22;9284;52.298;21.164;2022-08-18T15:18:39;29.40;1.00
18317;DHT22;9284;52.298;21.164;2022-08-18T15:21:07;29.60;1.00
18317;DHT22;9284;52.298;21.164;2022-08-18T15:24:05;29.60;1.00
18317;DHT22;9284;52.298;21.164;2022-08-18T15:26:53;29.70;1.00
18317;DHT22;9284;52.298;21.164;2022-08-18T15:29:25;29.80;1.00
18317;DHT22;9284;52.298;21.164;2022-08-18T15:31:56;29.70;1.00
18317;DHT22;9284;52.298;21.164;2022-08-18T15:34:32;29.70;1.00
18317;DHT22;9284;52.298;21.164;2022-08-18T15:37:13;29.70;1.00
18317;DHT22;9284;52.298;21.164;2022-08-18T15:39:46;29.70;1.00
18317;DHT22;9284;52.298;21.164;2022-08-18T15:42:23;29.70;1.00
18317;DHT22;9284;52.298;21.164;2022-08-18T15:44:53;29.70;1.00
18317;DHT22;9284;52.298;21.164;2022-08-18T15:47:22;29.60;1.00
18317;DHT22;9284;52.298;21.164;2022-08-18T15:49:51;29.50;1.00
18317;DHT22;9284;52.298;21.164;2022-08-18T15:52:21;29.50;1.00
18317;DHT22;9284;52.298;21.164;2022-08-18T15:54:51;29.40;1.00
18317;DHT22;9284;52.298;21.164;2022-08-18T15:57:29;29.30;1.00
18317;DHT22;9284;52.298;21.164;2022-08-18T16:00:07;29.30;1.00
18317;DHT22;9284;52.298;21.164;2022-08-18T16:02:39;29.20;1.00
18317;DHT22;9284;52.298;21.164;2022-08-18T16:05:15;29.30;1.00
18317;DHT22;9284;52.298;21.164;2022-08-18T16:07:44;29.20;1.00
18317;DHT22;9284;52.298;21.164;2022-08-18T16:10:14;29.10;1.00
18317;DHT22;9284;52.298;21.164;2022-08-18T16:12:45;29.10;1.00
18317;DHT22;9284;52.298;21.164;2022-08-18T16:15:14;29.10;1.00
18317;DHT22;9284;52.298;21.164;2022-08-18T16:17:47;28.90;1.00
18317;DHT22;9284;52.298;21.164;2022-08-18T16:20:17;28.80;1.00
18317;DHT22;9284;52.298;21.164;2022-08-18T16:22:45;28.60;1.00
18317;DHT22;9284;52.298;21.164;2022-08-18T16:25:14;28.50;1.00
18317;DHT22;9284;52.298;21.164;2022-08-18T16:27:44;28.40;1.00
18317;DHT22;9284;52.298;21.164;2022-08-18T16:30:16;28.30;1.00
18317;DHT22;9284;52.298;21.164;2022-08-18T16:32:44;28.20;1.00
18317;DHT22;9284;52.298;21.164;2022-08-18T16:35:13;28.10;1.00
18317;DHT22;9284;52.298;21.164;2022-08-18T16:37:42;28.00;1.00
18317;DHT22;9284;52.298;21.164;2022-08-18T16:40:12;27.80;18.30
18317;DHT22;9284;52.298;21.164;2022-08-18T16:42:40;27.80;14.20
18317;DHT22;9284;52.298;21.164;2022-08-18T16:45:11;27.60;55.50
18317;DHT22;9284;52.298;21.164;2022-08-18T16:47:39;27.50;31.20
18317;DHT22;9284;52.298;21.164;2022-08-18T16:50:09;27.40;99.90
18317;DHT22;9284;52.298;21.164;2022-08-18T16:52:38;27.30;99.90
18317;DHT22;9284;52.298;21.164;2022-08-18T16:55:07;27.10;99.90
18317;DHT22;9284;52.298;21.164;2022-08-18T16:57:37;26.90;16.60
18317;DHT22;9284;52.298;21.164;2022-08-18T17:00:25;26.80;1.00
18317;DHT22;9284;52.298;21.164;2022-08-18T17:03:11;26.60;92.80
18317;DHT22;9284;52.298;21.164;2022-08-18T17:06:01;26.50;99.90
18317;DHT22;9284;52.298;21.164;2022-08-18T17:08:29;26.30;95.20
18317;DHT22;9284;52.298;21.164;2022-08-18T17:11:00;26.20;1.00
18317;DHT22;9284;52.298;21.164;2022-08-18T17:13:28;26.10;86.20
18317;DHT22;9284;52.298;21.164;2022-08-18T17:15:58;26.00;99.90
18317;DHT22;9284;52.298;21.164;2022-08-18T17:18:27;26.00;1.00
18317;DHT22;9284;52.298;21.164;2022-08-18T17:21:00;25.90;1.00
18317;DHT22;9284;52.298;21.164;2022-08-18T17:23:28;25.80;99.90
18317;DHT22;9284;52.298;21.164;2022-08-18T17:25:57;25.70;1.00
18317;DHT22;9284;52.298;21.164;2022-08-18T17:28:34;25.60;1.00
18317;DHT22;9284;52.298;21.164;2022-08-18T17:31:12;25.60;99.90
18317;DHT22;9284;52.298;21.164;2022-08-18T17:33:42;25.40;99.90
18317;DHT22;9284;52.298;21.164;2022-08-18T17:36:15;25.30;99.90
18317;DHT22;9284;52.298;21.164;2022-08-18T17:38:49;25.20;1.00
18317;DHT22;9284;52.298;21.164;2022-08-18T17:41:19;25.10;99.90
18317;DHT22;9284;52.298;21.164;2022-08-18T17:43:49;25.00;99.90
18317;DHT22;9284;52.298;21.164;2022-08-18T17:46:20;24.90;99.90
18317;DHT22;9284;52.298;21.164;2022-08-18T17:48:57;24.80;1.00
18317;DHT22;9284;52.298;21.164;2022-08-18T17:51:32;24.70;1.00
18317;DHT22;9284;52.298;21.164;2022-08-18T17:54:07;24.60;1.00
18317;DHT22;9284;52.298;21.164;2022-08-18T17:56:41;24.50;99.90
18317;DHT22;9284;52.298;21.164;2022-08-18T17:59:15;24.40;99.90
18317;DHT22;9284;52.298;21.164;2022-08-18T18:02:11;24.30;1.00
18317;DHT22;9284;52.298;21.164;2022-08-18T18:04:56;24.20;1.00
18317;DHT22;9284;52.298;21.164;2022-08-18T18:07:27;24.10;26.40
18317;DHT22;9284;52.298;21.164;2022-08-18T18:09:59;24.10;99.90
18317;DHT22;9284;52.298;21.164;2022-08-18T18:12:29;23.90;99.90
18317;DHT22;9284;52.298;21.164;2022-08-18T18:14:58;23.80;99.90
18317;DHT22;9284;52.298;21.164;2022-08-18T18:17:31;23.80;99.90
18317;DHT22;9284;52.298;21.164;2022-08-18T18:20:28;23.70;1.00
18317;DHT22;9284;52.298;21.164;2022-08-18T18:23:14;23.70;1.00
18317;DHT22;9284;52.298;21.164;2022-08-18T18:25:43;23.50;1.00
18317;DHT22;9284;52.298;21.164;2022-08-18T18:28:24;23.50;1.00
18317;DHT22;9284;52.298;21.164;2022-08-18T18:30:53;23.40;1.00
18317;DHT22;9284;52.298;21.164;2022-08-18T18:33:28;23.40;99.90
18317;DHT22;9284;52.298;21.164;2022-08-18T18:35:57;23.30;99.90
18317;DHT22;9284;52.298;21.164;2022-08-18T18:38:30;23.20;99.90
18317;DHT22;9284;52.298;21.164;2022-08-18T18:41:24;23.20;99.90
18317;DHT22;9284;52.298;21.164;2022-08-18T18:44:04;23.20;99.90
18317;DHT22;9284;52.298;21.164;2022-08-18T18:46:35;23.10;99.90
18317;DHT22;9284;52.298;21.164;2022-08-18T18:49:15;23.10;99.90
18317;DHT22;9284;52.298;21.164;2022-08-18T18:51:56;23.00;99.90
18317;DHT22;9284;52.298;21.164;2022-08-18T18:54:38;22.80;99.90
18317;DHT22;9284;52.298;21.164;2022-08-18T18:57:20;22.90;99.90
18317;DHT22;9284;52.298;21.164;2022-08-18T19:00:04;22.90;99.90
18317;DHT22;9284;52.298;21.164;2022-08-18T19:02:49;22.80;99.90
18317;DHT22;9284;52.298;21.164;2022-08-18T19:05:26;22.80;99.90
18317;DHT22;9284;52.298;21.164;2022-08-18T19:08:02;22.70;99.90
18317;DHT22;9284;52.298;21.164;2022-08-18T19:10:35;22.80;99.90
18317;DHT22;9284;52.298;21.164;2022-08-18T19:13:10;22.70;99.90
18317;DHT22;9284;52.298;21.164;2022-08-18T19:16:03;22.60;99.90
18317;DHT22;9284;52.298;21.164;2022-08-18T19:18:35;22.60;99.90
18317;DHT22;9284;52.298;21.164;2022-08-18T19:21:17;22.60;1.00
18317;DHT22;9284;52.298;21.164;2022-08-18T19:24:12;22.50;1.00
18317;DHT22;9284;52.298;21.164;2022-08-18T19:26:44;22.40;1.00
18317;DHT22;9284;52.298;21.164;2022-08-18T19:29:18;22.40;1.00
18317;DHT22;9284;52.298;21.164;2022-08-18T19:31:54;22.30;1.00
18317;DHT22;9284;52.298;21.164;2022-08-18T19:34:28;22.30;1.00
18317;DHT22;9284;52.298;21.164;2022-08-18T19:37:01;22.20;1.00
18317;DHT22;9284;52.298;21.164;2022-08-18T19:39:39;22.20;1.00
18317;DHT22;9284;52.298;21.164;2022-08-18T19:42:16;22.20;1.00
18317;DHT22;9284;52.298;21.164;2022-08-18T19:44:52;22.10;1.00
18317;DHT22;9284;52.298;21.164;2022-08-18T19:47:46;22.10;48.90
18317;DHT22;9284;52.298;21.164;2022-08-18T19:50:21;21.90;99.90
18317;DHT22;9284;52.298;21.164;2022-08-18T19:55:58;21.90;99.90
18317;DHT22;9284;52.298;21.164;2022-08-18T19:58:46;21.90;99.90
18317;DHT22;9284;52.298;21.164;2022-08-18T20:01:46;21.90;99.90
18317;DHT22;9284;52.298;21.164;2022-08-18T20:04:37;21.80;99.90
18317;DHT22;9284;52.298;21.164;2022-08-18T20:10:35;21.70;99.90
18317;DHT22;9284;52.298;21.164;2022-08-18T20:13:26;21.70;99.90
18317;DHT22;9284;52.298;21.164;2022-08-18T20:16:14;21.60;99.90
18317;DHT22;9284;52.298;21.164;2022-08-18T20:19:44;21.50;99.90
18317;DHT22;9284;52.298;21.164;2022-08-18T20:22:37;21.60;99.90
18317;DHT22;9284;52.298;21.164;2022-08-18T20:25:31;21.40;99.90
18317;DHT22;9284;52.298;21.164;2022-08-18T20:28:21;21.50;99.90
18317;DHT22;9284;52.298;21.164;2022-08-18T20:30:56;21.30;99.90
18317;DHT22;9284;52.298;21.164;2022-08-18T20:33:29;21.40;99.90
18317;DHT22;9284;52.298;21.164;2022-08-18T20:36:09;21.30;99.90
18317;DHT22;9284;52.298;21.164;2022-08-18T20:38:40;21.40;99.90
18317;DHT22;9284;52.298;21.164;2022-08-18T20:41:44;21.30;99.90
18317;DHT22;9284;52.298;21.164;2022-08-18T20:44:41;21.30;99.90
18317;DHT22;9284;52.298;21.164;2022-08-18T20:47:50;21.20;99.90
18317;DHT22;9284;52.298;21.164;2022-08-18T20:50:58;21.20;99.90
18317;DHT22;9284;52.298;21.164;2022-08-18T20:53:45;21.20;1.00
18317;DHT22;9284;52.298;21.164;2022-08-18T20:56:24;21.20;1.00
18317;DHT22;9284;52.298;21.164;2022-08-18T20:59:02;21.20;1.00
18317;DHT22;9284;52.298;21.164;2022-08-18T21:01:36;21.20;1.00
18317;DHT22;9284;52.298;21.164;2022-08-18T21:04:04;21.10;1.00
18317;DHT22;9284;52.298;21.164;2022-08-18T21:06:37;21.10;1.00
18317;DHT22;9284;52.298;21.164;2022-08-18T21:09:07;21.10;1.00
18317;DHT22;9284;52.298;21.164;2022-08-18T21:11:39;21.20;1.00
18317;DHT22;9284;52.298;21.164;2022-08-18T21:14:08;21.10;1.00
18317;DHT22;9284;52.298;21.164;2022-08-18T21:16:41;21.10;1.00
18317;DHT22;9284;52.298;21.164;2022-08-18T21:19:17;21.00;1.00
18317;DHT22;9284;52.298;21.164;2022-08-18T21:21:48;21.10;99.90
18317;DHT22;9284;52.298;21.164;2022-08-18T21:24:26;21.10;99.90
18317;DHT22;9284;52.298;21.164;2022-08-18T21:26:57;21.00;99.90
18317;DHT22;9284;52.298;21.164;2022-08-18T21:29:26;21.10;99.90